createdAt,value
2018-12-18T00:02:33.484Z,4.80
2018-12-18T00:05:37.265Z,5.67
2018-12-18T00:08:35.750Z,5.33
2018-12-18T00:11:33.614Z,5.42
2018-12-18T00:14:27.187Z,3.80
2018-12-18T00:17:21.786Z,4.92
2018-12-18T00:20:17.133Z,5.70
2018-12-18T00:23:14.798Z,5.75
2018-12-18T00:26:09.649Z,4.85
2018-12-18T00:29:18.829Z,5.70
2018-12-18T00:32:14.703Z,4.15
2018-12-18T00:35:14.411Z,5.65
2018-12-18T00:38:12.096Z,5.55
2018-12-18T00:41:13.083Z,5.45
2018-12-18T00:44:08.482Z,3.52
2018-12-18T00:47:16.076Z,5.50
2018-12-18T00:50:09.128Z,4.58
2018-12-18T00:53:02.952Z,5.78
2018-12-18T00:55:56.011Z,4.12
2018-12-18T00:58:58.026Z,4.17
2018-12-18T01:01:51.338Z,3.67
2018-12-18T01:04:44.140Z,5.72
2018-12-18T01:07:37.452Z,4.60
2018-12-18T01:10:30.250Z,4.15
2018-12-18T01:13:23.561Z,6.75
2018-12-18T01:16:16.615Z,5.03
2018-12-18T01:19:09.418Z,4.30
2018-12-18T01:21:59.963Z,4.03
2018-12-18T01:24:52.972Z,4.67
2018-12-18T01:27:46.033Z,4.87
2018-12-18T01:30:39.096Z,4.33
2018-12-18T01:33:32.140Z,3.87
2018-12-18T01:36:25.449Z,5.62
2018-12-18T01:39:18.503Z,4.90
2018-12-18T01:42:11.305Z,3.92
2018-12-18T01:45:04.105Z,3.95
2018-12-18T01:47:57.166Z,4.90
2018-12-18T01:50:49.963Z,3.75
2018-12-18T01:53:43.528Z,3.85
2018-12-18T01:56:36.587Z,5.30
2018-12-18T01:59:29.898Z,4.22
2018-12-18T02:02:22.956Z,1.92
2018-12-18T02:05:16.010Z,3.65
2018-12-18T02:08:10.346Z,4.20
2018-12-18T02:11:03.401Z,4.78
2018-12-18T02:13:56.713Z,3.70
2018-12-18T02:16:49.773Z,4.00
2018-12-18T02:19:42.830Z,3.35
2018-12-18T02:22:35.627Z,3.45
2018-12-18T02:25:28.684Z,3.65
2018-12-18T02:28:21.738Z,3.12
2018-12-18T02:31:14.808Z,4.45
2018-12-18T02:34:13.686Z,3.95
2018-12-18T02:36:58.087Z,4.85
2018-12-18T02:39:50.889Z,3.35
2018-12-18T02:42:43.947Z,2.83
2018-12-18T02:45:37.006Z,3.35
2018-12-18T02:48:30.826Z,3.77
2018-12-18T02:51:25.167Z,3.80
2018-12-18T02:54:17.961Z,3.27
2018-12-18T02:57:14.093Z,2.35
2018-12-18T03:00:07.913Z,4.22
2018-12-18T03:03:00.713Z,3.27
2018-12-18T03:05:53.771Z,2.60
2018-12-18T03:08:46.570Z,3.72
2018-12-18T03:11:39.369Z,3.08
2018-12-18T03:14:32.429Z,3.77
2018-12-18T03:17:28.300Z,3.95
2018-12-18T03:20:22.119Z,3.45
2018-12-18T03:23:15.180Z,3.90
2018-12-18T03:26:07.979Z,3.33
2018-12-18T03:29:00.775Z,3.05
2018-12-18T03:31:55.627Z,3.47
2018-12-18T03:34:48.427Z,2.35
2018-12-18T03:37:46.348Z,3.87
2018-12-18T03:40:39.406Z,4.03
2018-12-18T03:43:32.459Z,3.87
2018-12-18T03:46:25.256Z,4.95
2018-12-18T03:49:18.314Z,4.70
2018-12-18T03:52:11.627Z,3.12
2018-12-18T03:55:04.424Z,2.98
2018-12-18T03:57:57.481Z,4.50
2018-12-18T04:00:51.305Z,3.67
2018-12-18T04:03:40.265Z,2.95
2018-12-18T04:06:33.323Z,2.70
2018-12-18T04:09:26.379Z,4.22
2018-12-18T04:12:36.327Z,2.92
2018-12-18T04:15:29.384Z,3.15
2018-12-18T04:18:25.254Z,2.90
2018-12-18T04:21:18.568Z,3.05
2018-12-18T04:24:11.374Z,3.50
2018-12-18T04:27:00.327Z,3.35
2018-12-18T04:29:54.408Z,3.10
2018-12-18T04:32:47.465Z,2.98
2018-12-18T04:35:40.265Z,2.80
2018-12-18T04:38:36.137Z,2.92
2018-12-18T04:41:29.454Z,2.45
2018-12-18T04:44:22.246Z,3.08
2018-12-18T04:47:11.466Z,3.27
2018-12-18T04:50:04.265Z,3.20
2018-12-18T04:52:57.320Z,2.90
2018-12-18T04:55:51.665Z,3.45
2018-12-18T04:58:44.431Z,2.08
2018-12-18T05:01:37.263Z,3.20
2018-12-18T05:07:35.143Z,2.35
2018-12-18T05:10:24.358Z,3.15
2018-12-18T05:13:17.416Z,2.30
2018-12-18T05:16:10.218Z,2.98
2018-12-18T05:19:06.088Z,2.95
2018-12-18T05:21:58.892Z,3.27
2018-12-18T05:24:52.969Z,2.55
2018-12-18T05:27:45.769Z,4.35
2018-12-18T05:30:39.596Z,4.42
2018-12-18T05:33:32.649Z,3.47
2018-12-18T05:36:26.018Z,4.67
2018-12-18T05:39:19.281Z,3.58
2018-12-18T05:42:12.587Z,4.17
2018-12-18T05:45:05.387Z,4.62
2018-12-18T05:47:58.447Z,5.42
2018-12-18T05:50:51.500Z,3.02
2018-12-18T05:53:44.558Z,3.42
2018-12-18T05:56:38.638Z,3.20
2018-12-18T05:59:31.696Z,3.70
2018-12-18T06:02:24.999Z,2.15
2018-12-18T06:05:18.062Z,3.80
2018-12-18T06:08:12.137Z,3.12
2018-12-18T06:11:05.457Z,3.20
2018-12-18T06:13:59.785Z,4.62
2018-12-18T06:16:53.095Z,3.20
2018-12-18T06:19:46.152Z,2.98
2018-12-18T06:22:39.977Z,2.72
2018-12-18T06:25:32.783Z,2.80
2018-12-18T06:28:26.602Z,2.45
2018-12-18T06:31:19.656Z,3.70
2018-12-18T06:34:12.458Z,4.20
2018-12-18T06:37:05.769Z,2.85
2018-12-18T06:39:59.609Z,3.75
2018-12-18T06:42:54.441Z,3.58
2018-12-18T06:45:47.498Z,4.15
2018-12-18T06:48:40.811Z,4.25
2018-12-18T06:51:33.867Z,2.92
2018-12-18T06:54:26.921Z,4.03
2018-12-18T06:57:19.980Z,3.50
2018-12-18T07:00:13.033Z,4.15
2018-12-18T07:03:06.089Z,3.35
2018-12-18T07:05:59.404Z,3.90
2018-12-18T07:08:50.026Z,3.55
2018-12-18T07:11:42.962Z,3.37
2018-12-18T07:14:35.753Z,3.12
2018-12-18T07:17:28.815Z,4.25
2018-12-18T07:20:21.869Z,3.65
2018-12-18T07:23:14.664Z,3.08
2018-12-18T07:26:07.534Z,4.35
2018-12-18T07:29:00.278Z,2.95
2018-12-18T07:31:53.320Z,3.83
2018-12-18T07:34:46.123Z,3.95
2018-12-18T07:37:39.180Z,5.20
2018-12-18T07:40:32.249Z,4.47
2018-12-18T07:43:25.032Z,5.40
2018-12-18T07:46:18.089Z,5.30
2018-12-18T07:49:10.895Z,3.65
2018-12-18T07:52:04.466Z,5.67
2018-12-18T07:54:57.519Z,3.55
2018-12-18T07:57:50.311Z,4.30
2018-12-18T08:00:43.369Z,3.42
2018-12-18T08:03:36.935Z,3.95
2018-12-18T08:06:29.996Z,4.08
2018-12-18T08:09:15.627Z,4.37
2018-12-18T08:12:08.687Z,4.50
2018-12-18T08:15:01.481Z,4.12
2018-12-18T08:17:55.307Z,3.92
2018-12-18T08:20:48.105Z,4.78
2018-12-18T08:23:41.163Z,4.15
2018-12-18T08:26:34.220Z,3.98
2018-12-18T08:29:28.296Z,4.33
2018-12-18T08:32:21.351Z,3.55
2018-12-18T08:35:18.512Z,3.83
2018-12-18T08:38:11.561Z,5.15
2018-12-18T08:41:05.905Z,4.17
2018-12-18T08:43:58.961Z,5.47
2018-12-18T08:46:52.014Z,4.62
2018-12-18T08:49:46.346Z,4.75
2018-12-18T08:52:39.154Z,3.90
2018-12-18T08:55:32.205Z,3.40
2018-12-18T08:58:26.026Z,3.37
2018-12-18T09:01:19.855Z,2.47
2018-12-18T09:04:12.908Z,2.37
2018-12-18T09:07:06.988Z,2.60
2018-12-18T09:10:00.046Z,2.58
2018-12-18T09:12:52.842Z,2.80
2018-12-18T09:16:06.121Z,3.25
2018-12-18T09:18:58.920Z,2.75
2018-12-18T09:21:51.976Z,2.12
2018-12-18T09:24:45.292Z,2.70
2018-12-18T09:27:38.352Z,2.10
2018-12-18T09:30:32.681Z,3.47
2018-12-18T09:33:25.745Z,2.02
2018-12-18T09:36:19.050Z,2.62
2018-12-18T09:39:21.579Z,2.62
2018-12-18T09:42:24.621Z,2.92
2018-12-18T09:45:17.681Z,3.27
2018-12-18T09:48:10.728Z,2.40
2018-12-18T09:51:03.528Z,2.05
2018-12-18T09:53:57.610Z,2.00
2018-12-18T09:57:05.271Z,1.90
2018-12-18T09:59:58.569Z,2.75
2018-12-18T10:02:51.626Z,2.15
2018-12-18T10:05:45.457Z,1.87
2018-12-18T10:08:39.785Z,1.80
2018-12-18T10:11:32.838Z,1.62
2018-12-18T10:14:25.897Z,3.12
2018-12-18T10:17:19.220Z,2.72
2018-12-18T10:20:12.520Z,2.02
2018-12-18T10:23:05.575Z,2.22
2018-12-18T10:25:58.635Z,2.33
2018-12-18T10:28:53.493Z,1.85
2018-12-18T10:31:46.281Z,2.67
2018-12-18T10:34:39.338Z,2.00
2018-12-18T10:37:32.392Z,2.37
2018-12-18T10:40:26.473Z,1.82
2018-12-18T10:43:19.528Z,1.37
2018-12-18T10:46:14.377Z,2.08
2018-12-18T10:49:07.434Z,2.47
2018-12-18T10:52:01.767Z,1.98
2018-12-18T10:54:52.501Z,2.10
2018-12-18T10:57:46.856Z,1.90
2018-12-18T11:00:49.897Z,1.70
2018-12-18T11:03:42.952Z,2.08
2018-12-18T11:06:35.753Z,1.77
2018-12-18T11:09:29.322Z,1.87
2018-12-18T11:12:22.374Z,1.92
2018-12-18T11:15:15.470Z,2.00
2018-12-18T11:18:08.278Z,2.90
2018-12-18T11:21:01.033Z,2.33
2018-12-18T11:23:53.838Z,1.72
2018-12-18T11:26:46.635Z,2.47
2018-12-18T11:29:39.689Z,1.85
2018-12-18T11:32:33.130Z,2.22
2018-12-18T11:35:26.313Z,2.17
2018-12-18T11:38:19.116Z,1.72
2018-12-18T11:41:12.169Z,2.17
2018-12-18T11:43:59.977Z,2.02
2018-12-18T11:46:52.910Z,1.40
2018-12-18T11:49:46.989Z,1.72
2018-12-18T11:52:39.788Z,1.30
2018-12-18T11:55:32.842Z,1.37
2018-12-18T11:58:25.898Z,2.37
2018-12-18T12:01:18.954Z,1.92
2018-12-18T12:04:12.007Z,2.15
2018-12-18T12:07:05.065Z,2.40
2018-12-18T12:09:57.864Z,2.42
2018-12-18T12:12:50.670Z,2.05
2018-12-18T12:15:43.721Z,2.52
2018-12-18T12:18:36.776Z,1.85
2018-12-18T12:21:29.841Z,1.72
2018-12-18T12:24:22.899Z,2.33
2018-12-18T12:27:25.425Z,2.02
2018-12-18T12:30:18.476Z,1.52
2018-12-18T12:33:11.270Z,1.67
2018-12-18T12:35:56.624Z,2.15
2018-12-18T12:38:49.451Z,2.05
2018-12-18T12:41:42.249Z,2.20
2018-12-18T12:44:35.049Z,1.70
2018-12-18T12:47:28.104Z,2.52
2018-12-18T12:50:21.163Z,2.00
2018-12-18T12:53:14.216Z,2.02
2018-12-18T12:56:07.272Z,1.82
2018-12-18T12:59:02.124Z,1.62
2018-12-18T13:01:51.080Z,2.27
2018-12-18T13:04:44.137Z,2.52
2018-12-18T13:07:38.216Z,2.25
2018-12-18T13:10:31.015Z,1.62
2018-12-18T13:13:24.073Z,2.37
2018-12-18T13:16:16.874Z,2.00
2018-12-18T13:19:10.951Z,1.60
2018-12-18T13:22:03.753Z,2.45
2018-12-18T13:24:56.810Z,1.70
2018-12-18T13:27:49.668Z,1.60
2018-12-18T13:30:42.687Z,1.60
2018-12-18T13:33:35.975Z,2.12
2018-12-18T13:36:28.775Z,2.10
2018-12-18T13:39:22.089Z,2.00
2018-12-18T13:42:14.888Z,2.30
2018-12-18T13:45:08.198Z,2.30
2018-12-18T13:48:01.002Z,2.08
2018-12-18T13:50:55.079Z,2.10
2018-12-18T13:53:47.880Z,1.77
2018-12-18T13:56:39.913Z,2.12
2018-12-18T13:59:32.712Z,1.50
2018-12-18T14:02:27.048Z,1.85
2018-12-18T14:05:19.855Z,2.00
2018-12-18T14:08:12.647Z,1.77
2018-12-18T14:11:05.448Z,1.52
2018-12-18T14:13:58.759Z,1.60
2018-12-18T14:16:59.241Z,1.67
2018-12-18T14:19:52.302Z,2.00
2018-12-18T14:22:45.099Z,1.90
2018-12-18T14:25:37.902Z,1.87
2018-12-18T14:28:30.952Z,1.65
2018-12-18T14:31:24.263Z,1.72
2018-12-18T14:34:17.323Z,2.08
2018-12-18T14:37:10.127Z,2.00
2018-12-18T14:40:02.919Z,2.10
2018-12-18T14:42:55.975Z,2.40
2018-12-18T14:45:50.830Z,1.98
2018-12-18T14:48:45.672Z,1.77
2018-12-18T14:51:38.728Z,1.60
2018-12-18T14:54:31.528Z,1.85
2018-12-18T14:57:24.585Z,2.42
2018-12-18T15:00:17.652Z,1.77
2018-12-18T15:03:10.709Z,2.85
2018-12-18T15:06:03.499Z,1.60
2018-12-18T15:08:56.554Z,1.67
2018-12-18T15:11:49.608Z,1.67
2018-12-18T15:14:42.416Z,1.70
2018-12-18T15:17:35.209Z,2.20
2018-12-18T15:20:36.455Z,2.15
2018-12-18T15:23:29.255Z,2.10
2018-12-18T15:26:24.871Z,1.98
2018-12-18T15:29:18.190Z,2.10
2018-12-18T15:32:12.007Z,1.95
2018-12-18T15:35:05.065Z,1.47
2018-12-18T15:37:58.121Z,2.02
2018-12-18T15:40:50.918Z,1.98
2018-12-18T15:43:45.257Z,1.90
2018-12-18T15:46:38.055Z,1.90
2018-12-18T15:49:30.856Z,1.95
2018-12-18T15:52:20.077Z,2.37
2018-12-18T15:55:10.056Z,3.12
2018-12-18T15:58:02.856Z,2.50
2018-12-18T16:00:55.918Z,1.60
2018-12-18T16:03:49.734Z,1.85
2018-12-18T16:06:42.535Z,1.95
2018-12-18T16:09:31.752Z,2.17
2018-12-18T16:12:21.031Z,1.80
2018-12-18T16:15:10.185Z,1.55
2018-12-18T16:18:04.778Z,1.70
2018-12-18T16:20:57.577Z,1.70
2018-12-18T16:23:51.144Z,1.92
2018-12-18T16:27:39.239Z,2.58
2018-12-18T16:30:32.303Z,2.35
2018-12-18T16:33:25.351Z,2.10
2018-12-18T16:36:18.410Z,2.27
2018-12-18T16:39:12.488Z,3.08
2018-12-18T16:42:05.291Z,2.60
2018-12-18T16:44:58.344Z,2.70
2018-12-18T16:47:52.424Z,2.80
2018-12-18T16:50:48.296Z,2.40
2018-12-18T16:53:41.097Z,2.42
2018-12-18T16:56:34.159Z,2.33
2018-12-18T16:59:23.485Z,3.27
2018-12-18T17:02:17.454Z,2.95
2018-12-18T17:05:11.784Z,3.17
2018-12-18T17:08:05.609Z,2.70
2018-12-18T17:10:59.187Z,2.25
2018-12-18T17:13:51.978Z,2.62
2018-12-18T17:16:45.044Z,2.58
2018-12-18T17:19:38.088Z,2.37
2018-12-18T17:22:33.193Z,3.02
2018-12-18T17:25:26.250Z,2.62
2018-12-18T17:28:19.052Z,2.65
2018-12-18T17:31:08.266Z,2.27
2018-12-18T17:34:01.330Z,2.50
2018-12-18T17:36:54.119Z,2.08
2018-12-18T17:39:47.174Z,2.58
2018-12-18T17:42:40.233Z,2.65
2018-12-18T17:45:34.056Z,2.25
2018-12-18T17:48:26.857Z,2.30
2018-12-18T17:51:19.913Z,1.90
2018-12-18T17:54:12.973Z,2.40
2018-12-18T17:57:06.025Z,2.10
2018-12-18T17:59:59.592Z,2.17
2018-12-18T18:02:52.649Z,2.35
2018-12-18T18:05:45.741Z,2.05
2018-12-18T18:08:35.944Z,2.40
2018-12-18T18:11:29.001Z,2.12
2018-12-18T18:14:22.056Z,2.10
2018-12-18T18:17:11.272Z,1.87
2018-12-18T18:20:04.330Z,2.33
2018-12-18T18:23:00.200Z,2.80
2018-12-18T18:25:53.004Z,2.72
2018-12-18T18:28:46.324Z,2.37
2018-12-18T18:31:39.369Z,2.00
2018-12-18T18:34:32.426Z,2.50
2018-12-18T18:37:25.483Z,1.92
2018-12-18T18:40:18.285Z,2.85
2018-12-18T18:43:11.341Z,2.45
2018-12-18T18:46:04.650Z,3.05
2018-12-18T18:48:57.704Z,2.87
2018-12-18T18:51:46.926Z,3.45
2018-12-18T18:54:39.977Z,3.72
2018-12-18T18:57:33.033Z,4.12
2018-12-18T19:00:26.097Z,3.60
2018-12-18T19:03:26.570Z,3.42
2018-12-18T19:06:19.633Z,2.60
2018-12-18T19:09:12.943Z,3.00
2018-12-18T19:12:07.018Z,2.60
2018-12-18T19:15:00.079Z,2.92
2018-12-18T19:17:53.680Z,3.02
2018-12-18T19:20:46.446Z,3.02
2018-12-18T19:23:39.753Z,3.20
2018-12-18T19:26:32.810Z,3.65
2018-12-18T19:29:26.123Z,2.95
2018-12-18T19:32:19.177Z,2.87
2018-12-18T19:35:12.232Z,3.15
2018-12-18T19:38:03.413Z,2.40
2018-12-18T19:40:54.761Z,2.65
2018-12-18T19:43:48.079Z,3.30
2018-12-18T19:46:41.128Z,2.67
2018-12-18T19:49:34.446Z,3.72
2018-12-18T19:52:27.756Z,2.50
2018-12-18T19:55:21.067Z,3.10
2018-12-18T19:58:14.636Z,2.65
2018-12-18T20:01:07.963Z,2.98
2018-12-18T20:04:04.074Z,2.52
2018-12-18T20:06:57.384Z,2.17
2018-12-18T20:09:51.743Z,2.87
2018-12-18T20:12:48.112Z,1.98
2018-12-18T20:15:41.423Z,3.00
2018-12-18T20:18:34.733Z,2.83
2018-12-18T20:21:27.795Z,1.95
2018-12-18T20:24:21.096Z,2.60
2018-12-18T20:27:15.177Z,1.75
2018-12-18T20:30:08.235Z,3.30
2018-12-18T20:33:01.546Z,3.00
2018-12-18T20:35:55.115Z,3.37
2018-12-18T20:38:48.681Z,2.75
2018-12-18T20:41:42.258Z,3.30
2018-12-18T20:44:35.306Z,2.83
2018-12-18T20:47:29.132Z,3.05
2018-12-18T20:50:19.625Z,3.08
2018-12-18T20:53:12.938Z,3.27
2018-12-18T20:56:08.045Z,2.92
2018-12-18T20:59:01.096Z,2.58
2018-12-18T21:01:46.472Z,3.08
2018-12-18T21:04:39.785Z,2.95
2018-12-18T21:07:33.374Z,2.83
2018-12-18T21:10:22.772Z,2.83
2018-12-18T21:13:26.610Z,2.50
2018-12-18T21:16:13.355Z,3.08
2018-12-18T21:19:02.770Z,2.35
2018-12-18T21:21:56.086Z,2.35
2018-12-18T21:24:49.128Z,3.08
2018-12-18T21:27:42.441Z,2.50
2018-12-18T21:30:29.865Z,1.95
2018-12-18T21:33:22.923Z,1.45
2018-12-18T21:36:16.234Z,1.87
2018-12-18T21:39:09.294Z,2.17
2018-12-18T21:42:03.116Z,2.20
2018-12-18T21:44:56.170Z,2.00
2018-12-18T21:47:50.002Z,3.45
2018-12-18T21:50:45.866Z,2.72
2018-12-18T21:53:38.922Z,2.70
2018-12-18T21:56:31.975Z,2.45
2018-12-18T21:59:25.033Z,2.40
2018-12-18T22:02:18.864Z,2.30
2018-12-18T22:05:12.170Z,2.87
2018-12-18T22:08:17.014Z,3.65
2018-12-18T22:11:13.901Z,2.35
2018-12-18T22:14:06.954Z,2.35
2018-12-18T22:17:00.522Z,2.47
2018-12-18T22:19:53.832Z,2.20
2018-12-18T22:22:46.633Z,2.00
2018-12-18T22:25:40.712Z,2.77
2018-12-18T22:28:34.282Z,2.15
2018-12-18T22:31:27.601Z,3.37
2018-12-18T22:34:20.655Z,3.12
2018-12-18T22:37:14.467Z,2.55
2018-12-18T22:40:07.785Z,2.75
2018-12-18T22:43:00.846Z,2.35
2018-12-18T22:45:53.897Z,2.17
2018-12-18T22:48:46.952Z,2.55
2018-12-18T22:51:40.009Z,2.02
2018-12-18T22:54:34.091Z,2.22
2018-12-18T22:57:29.976Z,2.58
2018-12-18T23:00:20.212Z,3.00
2018-12-18T23:03:13.264Z,2.98
2018-12-18T23:06:02.472Z,3.37
2018-12-18T23:09:03.466Z,3.12
2018-12-18T23:11:50.921Z,3.37
2018-12-18T23:14:45.738Z,3.90
2018-12-18T23:17:51.596Z,4.83
2018-12-18T23:20:45.688Z,4.70
2018-12-18T23:23:38.728Z,4.58
2018-12-18T23:26:31.527Z,4.05
2018-12-18T23:29:25.359Z,5.60
2018-12-18T23:32:18.664Z,5.42
2018-12-18T23:35:11.728Z,6.53
2018-12-18T23:38:06.093Z,6.45
2018-12-18T23:41:09.106Z,6.12
2018-12-18T23:44:03.692Z,5.33
2018-12-18T23:46:57.773Z,4.65
2018-12-18T23:49:50.829Z,7.78
2018-12-18T23:52:43.882Z,2.87
2018-12-18T23:55:33.017Z,4.05
2018-12-18T23:58:31.785Z,4.03
